Time;durP1;ratioP1;P1;durP2;ratioP2;P2;SDS_P1;SDS_P2;PMS_P1;PMS_P2;Temp;Humidity;BMP_temperature;BMP_pressure;BME280_temperature;BME280_humidity;BME280_pressure;Samples;Min_cycle;Max_cycle;Signal;HPM_P1;HPM_P2
2022/01/27 00:04:21;;;;;;;17.77;10.38;;;2.60;99.90;;;;;;5084412;28;20270;-83
2022/01/27 00:06:49;;;;;;;18.48;11.00;;;2.40;99.90;;;;;;5088230;28;20218;-82
2022/01/27 00:09:43;;;;;;;19.80;10.32;;;2.50;99.90;;;;;;5088487;28;20197;-87
2022/01/27 00:12:16;;;;;;;21.77;11.55;;;2.60;99.90;;;;;;5107327;28;20229;-86
2022/01/27 00:14:46;;;;;;;19.77;11.63;;;2.50;99.90;;;;;;5107840;28;20186;-83
2022/01/27 00:17:25;;;;;;;15.32;9.07;;;2.40;99.90;;;;;;5089344;28;20205;-84
2022/01/27 00:19:52;;;;;;;19.40;10.48;;;2.50;99.90;;;;;;5110304;28;20200;-82
2022/01/27 00:22:19;;;;;;;18.13;10.02;;;2.50;99.90;;;;;;5107026;28;20217;-85
2022/01/27 00:24:47;;;;;;;19.17;10.65;;;2.50;99.90;;;;;;5107846;28;20195;-83
2022/01/27 00:27:14;;;;;;;19.80;10.52;;;2.50;99.90;;;;;;5106558;28;20266;-83
2022/01/27 00:29:42;;;;;;;16.00;10.75;;;2.60;99.90;;;;;;5089976;28;20266;-84
2022/01/27 00:32:09;;;;;;;16.75;9.00;;;2.60;99.90;;;;;;5108198;28;20439;-85
2022/01/27 00:34:37;;;;;;;20.60;10.07;;;2.60;99.90;;;;;;5090683;28;20191;-87
2022/01/27 00:37:04;;;;;;;18.05;11.55;;;2.60;99.90;;;;;;5106389;28;20219;-85
2022/01/27 00:39:32;;;;;;;19.42;12.48;;;2.60;99.90;;;;;;5087439;28;20194;-83
2022/01/27 00:41:59;;;;;;;26.10;12.10;;;2.60;99.90;;;;;;5105379;28;20497;-85
2022/01/27 00:44:26;;;;;;;19.80;11.20;;;2.60;99.90;;;;;;5105851;28;20416;-85
2022/01/27 00:46:54;;;;;;;18.88;9.85;;;2.50;99.90;;;;;;5106275;28;20241;-88
2022/01/27 00:49:25;;;;;;;13.68;10.98;;;2.60;99.90;;;;;;5088428;28;20269;-84
2022/01/27 00:51:52;;;;;;;18.58;10.00;;;2.60;99.90;;;;;;5106111;28;20211;-83
2022/01/27 00:54:24;;;;;;;19.90;13.45;;;2.70;99.90;;;;;;5088414;28;20257;-85
2022/01/27 00:56:57;;;;;;;20.23;10.63;;;2.70;99.90;;;;;;5106337;28;20187;-86
2022/01/27 01:02:11;;;;;;;23.02;11.30;;;2.60;99.90;;;;;;5104341;28;20198;-86
2022/01/27 01:04:43;;;;;;;25.02;11.32;;;2.60;99.90;;;;;;5087644;28;20201;-84
2022/01/27 01:07:11;;;;;;;24.70;13.95;;;2.70;99.90;;;;;;5105923;28;20186;-84
2022/01/27 01:13:04;;;;;;;18.60;10.93;;;2.60;99.90;;;;;;5105868;28;20186;-85
2022/01/27 01:15:12;;;;;;;24.95;9.93;;;2.70;99.90;;;;;;5105922;28;20203;-84
2022/01/27 01:33:59;;;;;;;18.90;10.38;;;2.70;99.90;;;;;;5105858;28;20261;-83
2022/01/27 01:36:36;;;;;;;23.20;10.77;;;2.60;99.90;;;;;;5088358;28;20209;-86
2022/01/27 01:39:06;;;;;;;21.77;10.05;;;2.60;99.90;;;;;;5105158;28;20190;-85
2022/01/27 01:41:33;;;;;;;22.05;10.13;;;2.70;99.90;;;;;;5105329;28;20199;-84
2022/01/27 01:44:01;;;;;;;19.52;9.48;;;2.70;99.90;;;;;;5087492;28;20202;-86
2022/01/27 01:46:29;;;;;;;15.43;9.30;;;2.70;99.90;;;;;;5105550;28;20230;-88
2022/01/27 01:48:56;;;;;;;20.10;11.25;;;2.60;99.90;;;;;;5087833;28;20222;-88
2022/01/27 01:51:28;;;;;;;19.75;12.25;;;2.70;99.90;;;;;;5087968;28;20259;-85
2022/01/27 01:53:56;;;;;;;17.27;10.38;;;2.70;99.90;;;;;;5087107;28;20252;-87
2022/01/27 01:56:24;;;;;;;18.52;9.70;;;2.80;99.90;;;;;;5089270;28;20199;-85
2022/01/27 01:58:51;;;;;;;17.48;10.25;;;2.70;99.90;;;;;;5108993;28;20284;-87
2022/01/27 02:01:19;;;;;;;23.40;10.68;;;2.60;99.90;;;;;;5108261;28;20199;-84
2022/01/27 02:03:49;;;;;;;17.92;9.68;;;2.60;99.90;;;;;;5090483;28;20261;-86
2022/01/27 02:06:29;;;;;;;20.85;11.60;;;2.70;99.90;;;;;;5108258;28;20226;-84
2022/01/27 02:20:21;;;;;;;24.08;10.55;;;2.60;99.90;;;;;;5108443;28;20265;-86
2022/01/27 02:22:49;;;;;;;15.77;9.48;;;2.50;99.90;;;;;;5090255;28;20206;-84
2022/01/27 02:25:17;;;;;;;17.73;8.95;;;2.60;99.90;;;;;;5108682;28;20511;-82
2022/01/27 02:27:45;;;;;;;18.95;10.63;;;2.70;99.90;;;;;;5108621;28;20192;-86
2022/01/27 02:30:13;;;;;;;26.10;12.07;;;2.70;99.90;;;;;;5089734;28;20441;-85
2022/01/27 02:32:40;;;;;;;13.52;8.18;;;2.70;99.90;;;;;;5107325;28;20193;-83
2022/01/27 02:35:09;;;;;;;19.95;9.02;;;2.70;99.90;;;;;;5107652;28;20235;-84
2022/01/27 02:37:36;;;;;;;14.77;8.73;;;2.70;99.90;;;;;;5106843;28;20202;-83
2022/01/27 02:40:05;;;;;;;14.55;7.78;;;2.70;99.90;;;;;;5107006;28;20195;-85
2022/01/27 02:42:35;;;;;;;16.80;10.50;;;2.80;99.90;;;;;;5089631;28;20563;-85
2022/01/27 02:45:08;;;;;;;14.88;8.63;;;2.80;99.90;;;;;;5107312;28;20269;-83
2022/01/27 02:47:35;;;;;;;16.33;8.40;;;2.80;99.90;;;;;;5107434;28;20226;-86
2022/01/27 02:50:05;;;;;;;18.65;8.38;;;2.80;99.90;;;;;;5107379;28;20201;-86
2022/01/27 02:52:32;;;;;;;23.15;11.20;;;2.80;99.90;;;;;;5114655;28;20396;-85
2022/01/27 02:55:00;;;;;;;19.08;8.82;;;2.80;99.90;;;;;;5127990;28;20192;-87
2022/01/27 02:57:27;;;;;;;15.20;8.95;;;2.90;99.90;;;;;;5127348;28;20201;-84
2022/01/27 02:59:54;;;;;;;14.43;7.93;;;2.90;99.90;;;;;;5127578;28;20492;-85
2022/01/27 03:02:23;;;;;;;11.93;7.15;;;2.90;99.90;;;;;;5127456;28;20417;-82
2022/01/27 03:04:51;;;;;;;13.70;7.97;;;2.90;99.90;;;;;;5127255;28;20225;-86
2022/01/27 03:07:18;;;;;;;15.80;9.18;;;2.90;99.90;;;;;;5125770;28;20222;-85
2022/01/27 03:09:46;;;;;;;18.55;8.93;;;2.80;99.90;;;;;;5128407;28;20228;-82
2022/01/27 03:12:16;;;;;;;15.85;9.38;;;2.80;99.90;;;;;;5127578;28;20192;-84
2022/01/27 03:14:44;;;;;;;9.38;6.68;;;2.90;99.90;;;;;;5127641;28;20263;-80
2022/01/27 03:17:11;;;;;;;13.02;8.10;;;2.80;99.90;;;;;;5127843;28;20255;-83
2022/01/27 03:19:39;;;;;;;14.13;7.85;;;2.80;99.90;;;;;;5109896;28;20293;-86
2022/01/27 03:22:08;;;;;;;14.02;8.43;;;2.80;99.90;;;;;;5105057;28;20191;-85
2022/01/27 03:24:36;;;;;;;14.05;8.40;;;2.80;99.90;;;;;;5090178;28;20216;-84
2022/01/27 03:27:12;;;;;;;15.00;7.63;;;2.90;99.90;;;;;;5109014;28;20223;-85
2022/01/27 03:29:39;;;;;;;13.07;6.82;;;2.90;99.90;;;;;;5090404;28;20183;-84
2022/01/27 03:32:07;;;;;;;18.80;9.52;;;3.00;99.90;;;;;;5108121;28;20260;-88
2022/01/27 03:34:35;;;;;;;13.38;7.45;;;3.00;99.90;;;;;;5106860;28;20512;-85
2022/01/27 03:37:02;;;;;;;15.70;9.25;;;2.90;99.90;;;;;;5106566;28;20385;-85
2022/01/27 03:39:30;;;;;;;13.90;8.07;;;3.00;99.90;;;;;;5088328;28;20190;-84
2022/01/27 03:41:57;;;;;;;11.52;7.38;;;3.00;99.90;;;;;;5106704;28;20263;-82
2022/01/27 03:44:25;;;;;;;17.23;8.27;;;2.90;99.90;;;;;;5106101;28;20194;-84
2022/01/27 03:46:55;;;;;;;15.75;8.07;;;2.90;99.90;;;;;;5088387;28;20233;-84
2022/01/27 03:49:22;;;;;;;12.55;6.60;;;2.90;99.90;;;;;;5112048;28;20560;-82
2022/01/27 03:51:50;;;;;;;15.68;8.40;;;2.90;99.90;;;;;;5126999;28;20241;-82
2022/01/27 03:54:17;;;;;;;15.35;7.35;;;3.10;99.90;;;;;;5126541;28;20195;-81
2022/01/27 03:56:45;;;;;;;8.75;6.25;;;3.00;99.90;;;;;;5126802;28;20203;-83
2022/01/27 03:59:13;;;;;;;13.77;6.80;;;2.90;99.90;;;;;;5108737;28;20286;-82
2022/01/27 04:01:40;;;;;;;8.88;5.40;;;3.00;99.90;;;;;;5108361;28;20379;-84
2022/01/27 04:04:08;;;;;;;12.30;7.22;;;3.00;99.90;;;;;;5126559;28;20195;-81
2022/01/27 04:06:40;;;;;;;17.85;8.85;;;2.90;99.90;;;;;;5125949;28;20231;-82
2022/01/27 04:09:10;;;;;;;12.63;7.13;;;2.90;99.90;;;;;;5109079;28;20225;-82
2022/01/27 04:11:39;;;;;;;14.93;7.70;;;3.00;99.90;;;;;;5126498;28;20195;-83
2022/01/27 04:14:08;;;;;;;15.95;8.40;;;3.00;99.90;;;;;;5108522;28;20204;-83
2022/01/27 04:16:36;;;;;;;14.70;6.97;;;3.20;99.90;;;;;;5126385;28;20226;-82
2022/01/27 04:19:03;;;;;;;19.17;8.55;;;3.10;99.90;;;;;;5107186;28;20374;-82
2022/01/27 04:21:31;;;;;;;8.73;7.10;;;3.10;99.90;;;;;;5125968;28;20268;-84
2022/01/27 04:23:58;;;;;;;11.85;6.82;;;3.20;99.90;;;;;;5126049;28;20194;-83
2022/01/27 04:26:36;;;;;;;10.32;7.10;;;3.10;99.90;;;;;;5125890;28;20305;-83
2022/01/27 04:29:04;;;;;;;15.20;9.02;;;3.30;99.90;;;;;;5126134;28;20204;-81
2022/01/27 04:31:32;;;;;;;12.63;7.60;;;3.40;99.90;;;;;;5126123;28;20385;-82
2022/01/27 04:34:00;;;;;;;13.50;8.43;;;3.30;99.90;;;;;;5108132;28;20205;-82
2022/01/27 04:36:32;;;;;;;8.45;5.97;;;3.30;99.90;;;;;;5107457;28;20211;-81
2022/01/27 04:41:38;;;;;;;22.73;8.30;;;3.40;99.90;;;;;;5125921;28;20190;-81
2022/01/27 04:44:21;;;;;;;16.27;7.55;;;3.50;99.90;;;;;;5125858;28;20200;-81
2022/01/27 04:49:16;;;;;;;11.07;7.25;;;3.50;99.90;;;;;;5125924;28;20233;-82
2022/01/27 04:51:43;;;;;;;9.52;7.00;;;3.40;99.90;;;;;;5121423;28;20519;-83
2022/01/27 04:56:42;;;;;;;10.90;6.32;;;3.50;99.90;;;;;;5126806;28;20271;-82
2022/01/27 04:59:24;;;;;;;12.88;6.28;;;3.50;99.90;;;;;;5108438;28;20229;-84
2022/01/27 05:01:57;;;;;;;11.70;6.75;;;3.60;99.90;;;;;;5126753;28;20175;-81
2022/01/27 05:04:30;;;;;;;16.13;5.63;;;3.50;99.90;;;;;;5110505;28;20204;-84
2022/01/27 05:06:57;;;;;;;10.57;6.20;;;3.50;99.90;;;;;;5126857;28;20210;-84
2022/01/27 05:09:25;;;;;;;8.23;5.47;;;3.30;99.90;;;;;;5108793;28;20198;-83
2022/01/27 05:11:57;;;;;;;10.15;6.05;;;3.30;99.90;;;;;;5125414;28;20257;-83
2022/01/27 05:14:26;;;;;;;8.82;5.03;;;3.40;99.90;;;;;;5107802;28;20253;-84
2022/01/27 05:16:53;;;;;;;8.93;5.47;;;3.30;99.90;;;;;;5108099;28;20635;-83
2022/01/27 05:19:21;;;;;;;6.80;5.95;;;3.40;99.90;;;;;;5125465;28;20201;-82
2022/01/27 05:21:49;;;;;;;7.07;5.60;;;3.50;99.90;;;;;;5125401;28;20198;-84
2022/01/27 05:24:21;;;;;;;7.53;4.32;;;3.50;99.90;;;;;;5108415;28;20265;-84
2022/01/27 05:26:48;;;;;;;10.60;5.38;;;3.70;99.90;;;;;;5125304;28;20226;-83
2022/01/27 05:29:16;;;;;;;13.73;5.35;;;3.60;99.90;;;;;;5108273;28;20373;-83
2022/01/27 05:31:44;;;;;;;15.52;7.47;;;3.60;99.90;;;;;;5129963;28;20254;-84
2022/01/27 05:34:12;;;;;;;11.38;6.32;;;3.60;99.90;;;;;;5132163;28;20280;-80
2022/01/27 05:36:39;;;;;;;9.80;7.15;;;3.70;99.90;;;;;;5110547;28;20357;-82
2022/01/27 05:39:06;;;;;;;11.80;6.50;;;3.80;99.90;;;;;;5110112;28;20200;-82
2022/01/27 05:41:34;;;;;;;6.43;4.85;;;4.00;99.90;;;;;;5111180;28;20200;-84
2022/01/27 05:44:01;;;;;;;10.60;6.03;;;4.00;99.90;;;;;;5110363;28;20196;-82
2022/01/27 05:46:29;;;;;;;10.38;6.07;;;3.90;99.90;;;;;;5098928;28;20235;-84
2022/01/27 05:48:56;;;;;;;9.80;5.75;;;4.00;99.90;;;;;;5102301;28;20211;-83
2022/01/27 05:51:24;;;;;;;6.38;5.38;;;3.90;99.90;;;;;;5112347;28;20263;-84
2022/01/27 05:53:51;;;;;;;8.40;5.38;;;4.00;99.90;;;;;;5129741;28;20196;-83
2022/01/27 05:56:18;;;;;;;8.30;5.18;;;4.20;99.90;;;;;;5129922;28;20269;-83
2022/01/27 05:58:46;;;;;;;11.68;5.45;;;4.20;99.90;;;;;;5130525;28;20503;-85
2022/01/27 06:01:14;;;;;;;7.15;6.45;;;4.30;99.90;;;;;;5129334;28;20222;-85
2022/01/27 06:03:42;;;;;;;8.40;5.93;;;4.40;99.90;;;;;;5129799;28;20205;-85
2022/01/27 06:06:10;;;;;;;12.93;6.20;;;4.50;99.90;;;;;;5130025;28;20193;-84
2022/01/27 06:08:37;;;;;;;14.55;7.55;;;4.30;99.90;;;;;;5111833;28;20263;-83
2022/01/27 06:11:06;;;;;;;7.07;5.57;;;4.20;99.90;;;;;;5129173;28;20218;-84
2022/01/27 06:13:33;;;;;;;7.82;5.38;;;4.10;99.90;;;;;;5111302;28;20224;-86
2022/01/27 06:16:02;;;;;;;11.38;7.57;;;4.20;99.90;;;;;;5129304;28;20246;-86
2022/01/27 06:18:29;;;;;;;9.27;6.45;;;4.20;99.90;;;;;;5110988;28;20200;-84
2022/01/27 06:21:00;;;;;;;8.45;5.85;;;4.30;99.90;;;;;;5129020;28;20266;-85
2022/01/27 06:23:27;;;;;;;8.30;5.32;;;4.40;99.90;;;;;;5111209;28;20255;-84
2022/01/27 06:25:54;;;;;;;5.72;5.10;;;4.50;99.90;;;;;;5128871;28;20259;-84
2022/01/27 06:28:22;;;;;;;6.85;4.38;;;4.40;99.90;;;;;;5128707;28;20221;-85
2022/01/27 06:30:49;;;;;;;9.65;4.57;;;4.50;99.90;;;;;;5128124;28;20203;-84
2022/01/27 06:33:17;;;;;;;7.43;5.47;;;4.60;99.90;;;;;;5110684;28;20203;-83
2022/01/27 06:35:44;;;;;;;12.93;5.40;;;4.40;99.90;;;;;;5128707;28;20346;-83
2022/01/27 06:38:11;;;;;;;8.85;4.75;;;4.40;99.90;;;;;;5128042;28;20222;-81
2022/01/27 06:40:38;;;;;;;6.05;4.43;;;4.40;99.90;;;;;;5127179;28;20210;-83
2022/01/27 06:43:07;;;;;;;5.60;4.15;;;4.10;99.90;;;;;;5127333;28;20202;-82
2022/01/27 06:45:34;;;;;;;7.93;5.40;;;3.80;99.90;;;;;;5128137;28;20494;-83
2022/01/27 06:48:02;;;;;;;8.77;6.47;;;3.90;99.90;;;;;;5129931;28;20442;-84
2022/01/27 06:50:31;;;;;;;10.85;5.72;;;3.90;99.90;;;;;;5112880;28;20199;-86
2022/01/27 06:53:00;;;;;;;10.63;5.53;;;4.00;99.90;;;;;;5110928;28;20260;-84
2022/01/27 06:55:27;;;;;;;9.80;7.03;;;3.90;99.90;;;;;;5110226;28;20200;-85
2022/01/27 06:57:54;;;;;;;9.75;6.03;;;3.80;99.90;;;;;;5092366;28;20210;-84
2022/01/27 07:00:22;;;;;;;10.63;8.05;;;3.80;99.90;;;;;;5091863;28;20245;-83
2022/01/27 07:02:49;;;;;;;8.50;6.43;;;3.80;99.90;;;;;;5110963;28;20200;-83
2022/01/27 07:05:18;;;;;;;6.88;6.05;;;3.80;99.90;;;;;;5110149;28;20221;-85
2022/01/27 07:07:46;;;;;;;11.05;6.70;;;3.70;99.90;;;;;;5109402;28;20223;-83
2022/01/27 07:10:13;;;;;;;17.88;6.43;;;3.70;99.90;;;;;;5091992;28;20267;-82
2022/01/27 07:12:41;;;;;;;11.18;6.90;;;3.70;99.90;;;;;;5109265;28;20195;-85
2022/01/27 07:15:09;;;;;;;9.63;5.50;;;3.60;99.90;;;;;;5109310;28;20270;-84
2022/01/27 07:17:37;;;;;;;10.55;5.50;;;3.60;99.90;;;;;;5109752;28;20264;-83
2022/01/27 07:20:05;;;;;;;13.80;7.10;;;3.60;99.90;;;;;;5110487;28;20222;-84
2022/01/27 07:22:36;;;;;;;14.35;7.72;;;3.60;99.90;;;;;;5110147;28;20253;-84
2022/01/27 07:25:05;;;;;;;10.75;6.00;;;3.70;99.90;;;;;;5110134;28;20233;-84
2022/01/27 07:27:35;;;;;;;8.20;6.20;;;3.70;99.90;;;;;;5109478;28;20461;-83
2022/01/27 07:30:04;;;;;;;9.20;6.35;;;3.80;99.90;;;;;;5108380;28;20261;-84
2022/01/27 07:32:31;;;;;;;9.98;6.22;;;3.80;99.90;;;;;;5107292;28;20227;-83
2022/01/27 07:35:00;;;;;;;10.55;5.82;;;3.70;99.90;;;;;;5109152;28;20219;-84
2022/01/27 07:37:28;;;;;;;9.40;6.22;;;3.70;99.90;;;;;;5089549;28;20230;-83
2022/01/27 07:39:55;;;;;;;9.85;6.68;;;3.80;99.90;;;;;;5088799;28;20200;-82
2022/01/27 07:42:22;;;;;;;8.85;5.85;;;3.80;99.90;;;;;;5089197;28;20406;-83
2022/01/27 07:44:50;;;;;;;11.23;6.50;;;3.90;99.90;;;;;;5088434;28;20199;-84
2022/01/27 07:47:17;;;;;;;13.25;7.32;;;4.10;99.90;;;;;;5106382;28;20279;-85
2022/01/27 07:49:44;;;;;;;14.85;7.03;;;4.10;99.90;;;;;;5106530;28;20199;-82
2022/01/27 07:52:13;;;;;;;9.63;6.65;;;4.10;99.90;;;;;;5088630;28;20195;-84
2022/01/27 07:54:40;;;;;;;9.95;6.40;;;4.30;99.90;;;;;;5087694;28;20225;-84
2022/01/27 07:57:07;;;;;;;12.52;6.72;;;4.30;99.90;;;;;;5105685;28;20238;-83
2022/01/27 07:59:35;;;;;;;11.05;6.80;;;4.30;99.90;;;;;;5105601;28;20215;-83
2022/01/27 08:02:03;;;;;;;11.65;7.20;;;4.30;99.90;;;;;;5105392;28;20310;-83
2022/01/27 08:04:30;;;;;;;13.07;8.27;;;4.30;99.90;;;;;;5105703;28;20200;-83
2022/01/27 08:07:00;;;;;;;13.82;7.57;;;4.30;99.90;;;;;;5087967;28;20269;-82
2022/01/27 08:09:28;;;;;;;8.23;6.55;;;4.00;99.90;;;;;;5105918;28;20196;-83
2022/01/27 08:11:55;;;;;;;15.10;7.63;;;4.00;99.90;;;;;;5088229;28;20233;-83
2022/01/27 08:14:23;;;;;;;14.52;7.70;;;4.00;99.90;;;;;;5087963;28;20225;-83
2022/01/27 08:16:51;;;;;;;16.20;8.70;;;4.10;99.90;;;;;;5105129;28;20197;-85
2022/01/27 08:19:18;;;;;;;16.85;9.38;;;4.00;99.90;;;;;;5106096;28;20371;-84
2022/01/27 08:21:45;;;;;;;12.70;8.50;;;4.00;99.90;;;;;;5087634;28;20231;-83
2022/01/27 08:24:15;;;;;;;15.15;8.25;;;4.10;99.90;;;;;;5105898;28;20261;-83
2022/01/27 08:26:45;;;;;;;16.15;9.00;;;4.10;99.90;;;;;;5087329;28;20197;-83
2022/01/27 08:29:23;;;;;;;14.45;8.70;;;4.10;99.90;;;;;;5086969;28;20223;-83
2022/01/27 08:32:17;;;;;;;17.13;8.25;;;4.00;99.90;;;;;;5090488;28;20218;-83
2022/01/27 08:34:44;;;;;;;16.90;10.90;;;4.00;99.90;;;;;;5114171;28;20211;-85
2022/01/27 08:37:18;;;;;;;16.88;10.13;;;4.00;99.90;;;;;;5126242;28;20179;-84
2022/01/27 08:39:47;;;;;;;17.83;9.15;;;4.10;99.90;;;;;;5125435;28;20370;-83
2022/01/27 08:42:15;;;;;;;16.75;10.23;;;4.10;99.90;;;;;;5120455;28;20266;-85
2022/01/27 08:44:45;;;;;;;17.90;9.93;;;4.20;99.90;;;;;;5086934;28;20207;-84
2022/01/27 08:47:14;;;;;;;21.42;10.07;;;4.20;99.90;;;;;;5107329;28;20227;-83
2022/01/27 08:49:44;;;;;;;16.23;9.15;;;4.20;99.90;;;;;;5107741;28;20215;-83
2022/01/27 08:52:12;;;;;;;17.17;8.95;;;4.30;99.90;;;;;;5125727;28;20199;-83
2022/01/27 08:54:40;;;;;;;25.35;10.55;;;4.20;99.90;;;;;;5107626;28;20195;-84
2022/01/27 08:57:07;;;;;;;14.90;8.63;;;4.40;99.90;;;;;;5124877;28;20215;-84
2022/01/27 08:59:35;;;;;;;18.35;9.75;;;4.50;99.90;;;;;;5125464;28;20194;-84
2022/01/27 09:02:02;;;;;;;17.73;10.43;;;4.60;99.90;;;;;;5125419;28;20201;-84
2022/01/27 09:04:30;;;;;;;19.60;9.30;;;4.60;99.90;;;;;;5125130;28;20381;-85
2022/01/27 09:06:57;;;;;;;14.30;8.23;;;4.60;99.90;;;;;;5125460;28;20417;-84
2022/01/27 09:09:24;;;;;;;15.30;8.55;;;4.80;99.90;;;;;;5125494;28;20207;-84
2022/01/27 09:15:16;;;;;;;23.27;10.55;;;5.00;99.90;;;;;;5125376;28;20197;-85
2022/01/27 09:17:44;;;;;;;19.10;10.50;;;5.20;99.90;;;;;;5125614;28;20399;-84
2022/01/27 09:20:13;;;;;;;21.70;9.73;;;5.00;99.90;;;;;;5125466;28;20382;-84
2022/01/27 09:22:41;;;;;;;20.75;10.20;;;5.00;99.90;;;;;;5107704;28;20197;-84
2022/01/27 09:25:16;;;;;;;15.00;8.45;;;5.10;99.90;;;;;;5119265;28;20264;-85
2022/01/27 09:27:45;;;;;;;16.10;7.82;;;5.20;99.90;;;;;;5105251;28;20266;-83
2022/01/27 09:30:17;;;;;;;13.75;8.20;;;5.20;99.90;;;;;;5106623;28;20255;-85
2022/01/27 09:32:46;;;;;;;20.45;10.98;;;5.30;99.90;;;;;;5089110;28;20188;-83
2022/01/27 09:35:16;;;;;;;19.30;9.27;;;5.20;99.90;;;;;;5104960;28;20252;-84
2022/01/27 09:37:43;;;;;;;18.30;10.80;;;5.20;99.90;;;;;;5105035;28;20246;-85
2022/01/27 09:40:12;;;;;;;16.45;10.70;;;5.20;99.90;;;;;;5105737;28;20272;-85
2022/01/27 09:42:43;;;;;;;15.30;9.90;;;5.20;99.90;;;;;;5088178;28;20205;-84
2022/01/27 09:45:12;;;;;;;16.48;9.02;;;5.30;99.90;;;;;;5094723;28;20188;-83
2022/01/27 09:47:42;;;;;;;17.63;10.98;;;5.30;99.90;;;;;;5126742;28;20250;-85
2022/01/27 09:52:44;;;;;;;15.25;9.85;;;5.40;99.90;;;;;;5105395;28;20530;-84
2022/01/27 09:55:12;;;;;;;17.05;9.30;;;5.40;99.90;;;;;;5105255;28;20202;-83
2022/01/27 09:57:40;;;;;;;16.73;8.05;;;5.40;99.90;;;;;;5105173;28;20255;-83
2022/01/27 10:00:08;;;;;;;14.68;9.25;;;5.40;99.90;;;;;;5105795;28;20529;-84
2022/01/27 10:02:36;;;;;;;19.38;9.38;;;5.50;99.90;;;;;;5105867;28;20252;-84
2022/01/27 10:05:08;;;;;;;23.10;10.93;;;5.60;99.90;;;;;;5087645;28;20227;-84
2022/01/27 10:07:40;;;;;;;19.75;9.63;;;5.60;99.90;;;;;;5088642;28;20230;-84
2022/01/27 10:10:15;;;;;;;18.35;8.73;;;5.50;99.90;;;;;;5067859;28;20190;-81
2022/01/27 10:12:49;;;;;;;20.58;9.93;;;5.50;99.90;;;;;;5101902;28;20409;-86
2022/01/27 10:15:21;;;;;;;14.90;8.65;;;5.40;99.90;;;;;;5087730;28;20185;-84
2022/01/27 10:18:11;;;;;;;17.25;9.10;;;5.10;99.90;;;;;;5091690;28;20208;-86
2022/01/27 10:20:44;;;;;;;15.63;9.38;;;5.10;99.90;;;;;;5092005;28;20220;-85
2022/01/27 10:23:24;;;;;;;20.67;11.77;;;5.20;99.90;;;;;;5109540;28;20391;-85
2022/01/27 10:25:56;;;;;;;27.23;10.18;;;5.20;99.90;;;;;;5091891;28;20197;-85
2022/01/27 10:28:47;;;;;;;19.67;7.63;;;5.10;99.90;;;;;;5109419;28;20439;-85
2022/01/27 10:31:23;;;;;;;13.00;8.23;;;5.10;99.90;;;;;;5091740;28;20235;-83
2022/01/27 10:33:58;;;;;;;31.45;12.07;;;5.20;99.90;;;;;;5109511;28;20194;-83
2022/01/27 10:36:29;;;;;;;14.13;10.13;;;5.30;99.90;;;;;;5109182;28;20206;-84
2022/01/27 10:39:00;;;;;;;15.93;9.25;;;5.30;99.90;;;;;;5091284;28;20250;-83
2022/01/27 10:41:34;;;;;;;15.65;10.63;;;5.60;99.90;;;;;;5091431;28;20194;-85
2022/01/27 10:44:15;;;;;;;16.33;10.48;;;5.80;99.90;;;;;;5108538;28;20190;-84
2022/01/27 10:47:08;;;;;;;18.67;9.85;;;5.60;99.90;;;;;;5091496;28;20186;-84
2022/01/27 10:49:42;;;;;;;21.65;11.35;;;5.80;99.90;;;;;;5108481;28;20202;-84
2022/01/27 10:52:28;;;;;;;19.85;12.23;;;5.60;99.90;;;;;;5108435;28;20182;-83
2022/01/27 10:54:58;;;;;;;17.70;11.05;;;5.40;99.90;;;;;;5107556;28;20185;-85
2022/01/27 10:57:26;;;;;;;17.90;8.90;;;5.20;99.90;;;;;;5104972;28;20284;-84
2022/01/27 11:00:16;;;;;;;17.17;10.32;;;5.20;99.90;;;;;;5108730;28;20193;-84
2022/01/27 11:02:57;;;;;;;15.27;8.57;;;5.30;99.90;;;;;;5107568;28;20186;-84
2022/01/27 11:05:29;;;;;;;13.63;8.45;;;5.40;99.90;;;;;;5089583;28;20197;-84
2022/01/27 11:07:58;;;;;;;16.92;9.98;;;5.40;99.90;;;;;;5089087;28;20556;-83
2022/01/27 11:10:27;;;;;;;22.13;11.38;;;5.30;99.90;;;;;;5107381;28;20191;-84
2022/01/27 11:12:56;;;;;;;17.77;9.82;;;5.30;99.90;;;;;;5089686;28;20233;-83
2022/01/27 11:15:24;;;;;;;16.20;9.48;;;5.40;99.90;;;;;;5107327;28;20198;-84
2022/01/27 11:17:54;;;;;;;13.95;8.85;;;5.40;99.90;;;;;;5089657;28;20404;-82
2022/01/27 11:20:57;;;;;;;23.15;11.07;;;5.10;99.90;;;;;;5091994;28;20200;-84
2022/01/27 11:26:16;;;;;;;19.08;11.57;;;4.80;99.90;;;;;;5107684;28;20190;-84
2022/01/27 11:28:47;;;;;;;19.98;10.75;;;4.60;99.90;;;;;;5106639;28;20236;-83
2022/01/27 11:31:23;;;;;;;25.92;14.25;;;4.80;99.90;;;;;;5107668;28;20410;-84
2022/01/27 11:34:05;;;;;;;25.00;11.90;;;4.90;99.90;;;;;;5089817;28;20200;-85
2022/01/27 11:36:33;;;;;;;16.25;10.20;;;5.00;99.90;;;;;;5089806;28;20222;-85
2022/01/27 11:39:01;;;;;;;18.52;12.02;;;5.20;99.90;;;;;;5108234;28;20246;-85
2022/01/27 11:41:50;;;;;;;18.98;11.73;;;5.30;99.90;;;;;;5089939;28;20233;-84
2022/01/27 11:44:22;;;;;;;21.77;11.15;;;5.30;99.90;;;;;;5107998;28;20237;-85
2022/01/27 11:47:17;;;;;;;19.67;10.75;;;5.40;99.90;;;;;;5108198;28;20204;-85
2022/01/27 11:50:30;;;;;;;16.50;11.27;;;5.50;99.90;;;;;;5108675;28;20213;-85
2022/01/27 11:52:52;;;;;;;19.70;10.93;;;5.80;99.90;;;;;;5105977;28;20479;-84
2022/01/27 11:55:26;;;;;;;18.58;11.40;;;5.70;99.90;;;;;;5091105;28;20257;-86
2022/01/27 11:58:13;;;;;;;23.17;11.30;;;5.60;99.90;;;;;;5108317;28;20198;-84
2022/01/27 12:01:10;;;;;;;18.30;12.55;;;5.70;99.90;;;;;;5108111;28;20209;-86
2022/01/27 12:03:39;;;;;;;19.38;12.38;;;5.50;99.90;;;;;;5089206;28;20190;-84
2022/01/27 12:06:19;;;;;;;20.30;11.30;;;5.50;99.90;;;;;;5089528;28;20510;-84
2022/01/27 12:08:47;;;;;;;27.55;15.23;;;5.30;99.90;;;;;;5089428;28;20231;-86
2022/01/27 12:11:41;;;;;;;19.48;12.07;;;5.30;99.90;;;;;;5107536;28;20192;-84
2022/01/27 12:14:09;;;;;;;23.13;12.15;;;5.10;99.90;;;;;;5089315;28;20227;-85
2022/01/27 12:16:51;;;;;;;22.60;13.35;;;5.00;99.90;;;;;;5107729;28;20518;-84
2022/01/27 12:19:19;;;;;;;21.83;13.15;;;5.10;99.90;;;;;;5107067;28;20189;-85
2022/01/27 12:21:56;;;;;;;20.98;12.23;;;5.00;99.90;;;;;;5088630;28;20220;-83
2022/01/27 12:24:29;;;;;;;21.23;11.00;;;4.90;99.90;;;;;;5107081;28;20236;-86
2022/01/27 12:27:16;;;;;;;20.67;12.27;;;4.70;99.90;;;;;;5106794;28;20193;-86
2022/01/27 12:29:54;;;;;;;23.27;12.02;;;4.50;99.90;;;;;;5107423;28;20210;-85
2022/01/27 12:32:24;;;;;;;17.55;11.57;;;4.40;99.90;;;;;;5107105;28;20201;-85
2022/01/27 12:35:03;;;;;;;32.35;13.10;;;4.20;99.90;;;;;;5099715;28;20244;-85
2022/01/27 12:37:42;;;;;;;21.48;12.50;;;4.20;99.90;;;;;;5086110;28;20225;-84
2022/01/27 12:40:33;;;;;;;24.00;11.43;;;4.20;99.90;;;;;;5086015;28;20229;-83
2022/01/27 12:43:11;;;;;;;20.20;12.50;;;4.10;99.90;;;;;;5087578;28;20252;-84
2022/01/27 12:45:42;;;;;;;22.15;13.05;;;4.20;99.90;;;;;;5086466;28;20250;-85
2022/01/27 12:48:14;;;;;;;25.92;13.60;;;4.30;99.90;;;;;;5086587;28;20214;-86
2022/01/27 12:50:42;;;;;;;21.40;12.68;;;4.40;99.90;;;;;;5087053;28;20197;-86
2022/01/27 12:53:12;;;;;;;26.83;16.05;;;4.60;99.90;;;;;;5086356;28;20246;-86
2022/01/27 12:55:42;;;;;;;23.75;12.98;;;4.60;99.90;;;;;;5085988;28;20202;-85
2022/01/27 12:58:15;;;;;;;23.13;14.23;;;4.70;99.90;;;;;;5086392;28;20201;-86
2022/01/27 13:00:51;;;;;;;32.58;13.35;;;4.50;99.90;;;;;;5069482;28;20429;-85
2022/01/27 13:03:21;;;;;;;24.92;13.88;;;4.30;99.90;;;;;;5087795;28;20219;-88
2022/01/27 13:05:53;;;;;;;20.08;12.00;;;4.00;99.90;;;;;;5069990;28;20216;-86
2022/01/27 13:08:25;;;;;;;24.77;12.30;;;3.90;99.90;;;;;;5069739;28;20451;-86
2022/01/27 13:10:59;;;;;;;25.77;14.35;;;3.90;99.90;;;;;;5069515;28;20193;-86
2022/01/27 13:13:31;;;;;;;25.17;12.38;;;3.80;99.90;;;;;;5069844;28;20177;-85
2022/01/27 13:16:04;;;;;;;20.42;12.40;;;3.90;99.90;;;;;;5069324;28;20268;-85
2022/01/27 13:18:57;;;;;;;19.23;11.52;;;4.00;99.90;;;;;;5070252;28;20482;-85
2022/01/27 13:21:33;;;;;;;22.75;14.10;;;4.00;99.90;;;;;;5069830;28;20485;-85
2022/01/27 13:24:13;;;;;;;23.75;12.80;;;4.10;99.90;;;;;;5086720;28;20200;-85
2022/01/27 13:26:44;;;;;;;24.85;11.90;;;4.20;99.90;;;;;;5069034;28;20429;-85
2022/01/27 13:29:14;;;;;;;21.02;12.80;;;4.10;99.90;;;;;;5086718;28;20335;-89
2022/01/27 13:31:46;;;;;;;23.17;13.13;;;3.90;99.90;;;;;;5070071;28;20196;-84
2022/01/27 13:34:14;;;;;;;23.92;12.50;;;3.90;99.90;;;;;;5086489;28;20201;-87
2022/01/27 13:37:01;;;;;;;18.48;13.20;;;3.90;99.90;;;;;;5086312;28;20547;-88
2022/01/27 13:42:11;;;;;;;24.90;12.43;;;3.90;99.90;;;;;;5086665;28;20260;-86
2022/01/27 13:45:00;;;;;;;22.98;11.15;;;4.00;99.90;;;;;;5085599;28;20200;-85
2022/01/27 13:47:34;;;;;;;18.15;11.93;;;4.10;99.90;;;;;;5066484;28;20567;-85
2022/01/27 13:50:15;;;;;;;26.55;13.48;;;4.00;99.90;;;;;;5085288;28;20201;-85
2022/01/27 13:52:49;;;;;;;20.70;12.45;;;4.00;99.90;;;;;;5088426;28;20207;-85
2022/01/27 13:55:22;;;;;;;22.15;13.65;;;4.00;99.90;;;;;;5071102;28;20268;-86
2022/01/27 13:58:00;;;;;;;25.45;13.77;;;3.70;99.90;;;;;;5070831;28;20482;-85
2022/01/27 14:00:49;;;;;;;18.15;11.18;;;3.60;99.90;;;;;;5088865;28;20385;-86